Impacts METAR Board INFO
IDs:

KMIA - Miami Intl, FL, US

Updated at: 0330 UTC 19 Feb 2018
Potential Impact None Slight Moderate High
Time18/15Z 18/16Z 18/17Z 18/18Z 18/19Z 18/20Z 18/21Z 18/22Z 18/23Z 19/00Z 19/01Z 19/02Z 19/03Z
VIS10 10 10 10 10 10 10 10 10 10 10 10 10
CIG-- 60 60 -- 35 -- -- -- -- -- -- -- --
CoverSCTBKNBKNSCTBKNSCTSCTSCTFEWCLRFEWFEWFEW
FltCatVFRVFRVFRVFRVFRVFRVFRVFRVFRVFRVFRVFRVFR
WX--------------------------
WDir110100110110901101009010090908080
WSpd9 13 13 13 11 13 13 14 9 9 10 11 10
WGst-- 17 -- -- -- -- -- -- -- -- -- -- --
Raw hourly METARs
KMIA 181453Z 11009KT 10SM SCT030 SCT065 27/21 A3023 RMK AO2 SLP237 T02670206 53007
KMIA 181553Z 10013G17KT 10SM SCT025 BKN060 27/20 A3024 RMK AO2 SLP239 T02720200
KMIA 181653Z 11013KT 10SM SCT030 BKN060 28/19 A3023 RMK AO2 SLP236 T02830189 $
KMIA 181753Z 11013KT 10SM SCT030 28/19 A3021 RMK AO2 SLP228 T02830189 10289 20217 58009 $
KMIA 181853Z 09011KT 10SM BKN035 28/19 A3019 RMK AO2 SLP222 T02830189 $
KMIA 181953Z 11013KT 10SM SCT037 28/18 A3017 RMK AO2 SLP218 T02780178 $
KMIA 182053Z 10013KT 10SM SCT037 27/18 A3018 RMK AO2 SLP220 T02720178 55009 $
KMIA 182153Z 09014KT 10SM SCT034 23/18 A3019 RMK AO2 SLP222 T02330183 $
KMIA 182253Z 10009KT 10SM FEW033 26/18 A3020 RMK AO2 SLP226 T02560183 $
KMIA 182353Z COR 09009KT 10SM CLR 24/18 A3020 RMK AO2 SLP227 T02440183 10283 20217 51007 $
KMIA 190053Z 09010KT 10SM FEW025 24/18 A3022 RMK AO2 SLP233 T02390183 $
KMIA 190153Z 08011KT 10SM FEW025 23/18 A3023 RMK AO2 SLP238 T02280183 $
KMIA 190253Z 08010KT 10SM FEW025 24/18 A3024 RMK AO2 SLP239 T02390183 51013 $